Noyes, Minnesota
Current Conditions -  °F | °C
As of 12:33 AM on Friday 31 Oct 2014 (Local Time) from KHCO Reporting Station
Clear Clear  
Wind Chill: 13°   Ceiling: Unl
Heat Index: 21°   Visibility: 10mi
Dew Point: 16°   Wind: 7mph
Humidity: 80%   Direction: 340°NNW
Pressure: 30.6"   Gusts: NA
Location:  49°N, 97.21°W
Report Text: KHCO 310533Z AUTO 34006KT 10SM CLR M06/M09 A3060 RMK AO2
Loading
Personal Weather Stations






























Interactive Weather Map
Tropical Storm Tracking
New forecast layout! Learn more

10-Day Weather Forecast

Advertisements
Track Severe Weather on mobile